Time;durP1;ratioP1;P1;durP2;ratioP2;P2;SDS_P1;SDS_P2;PMS_P1;PMS_P2;Temp;Humidity;BMP_temperature;BMP_pressure;BME280_temperature;BME280_humidity;BME280_pressure;Samples;Min_cycle;Max_cycle;Signal;HPM_P1;HPM_P2
2023/04/24 00:00:14;;;;;;;0.35;0.20;;;21.30;43.80;;;;;;5049923;28;20356;-48
2023/04/24 00:02:46;;;;;;;0.38;0.30;;;21.30;43.80;;;;;;5047126;28;20079;-48
2023/04/24 00:05:13;;;;;;;0.52;0.30;;;21.30;43.80;;;;;;5045786;28;20506;-48
2023/04/24 00:07:40;;;;;;;0.25;0.25;;;21.30;43.80;;;;;;5047453;28;20322;-46
2023/04/24 00:10:07;;;;;;;0.70;0.32;;;21.30;43.80;;;;;;5050884;28;20048;-48
2023/04/24 00:12:33;;;;;;;0.30;0.30;;;21.30;43.80;;;;;;5047813;28;20033;-54
2023/04/24 00:14:59;;;;;;;0.60;0.40;;;21.30;43.80;;;;;;5049935;28;20080;-52
2023/04/24 00:17:25;;;;;;;1.30;0.30;;;21.30;43.80;;;;;;5047978;28;20470;-48
2023/04/24 00:19:51;;;;;;;0.30;0.30;;;21.30;43.80;;;;;;5048931;28;20032;-48
2023/04/24 00:22:17;;;;;;;0.30;0.30;;;21.30;43.80;;;;;;5048259;28;20029;-49
2023/04/24 00:24:43;;;;;;;0.30;0.20;;;21.30;43.80;;;;;;5047324;28;20057;-49
2023/04/24 00:27:09;;;;;;;0.52;0.20;;;21.30;43.80;;;;;;5046004;28;20044;-49
2023/04/24 00:29:35;;;;;;;0.32;0.20;;;21.30;43.80;;;;;;5048279;28;20025;-46
2023/04/24 00:32:01;;;;;;;0.20;0.20;;;21.30;43.80;;;;;;5048562;28;20025;-47
2023/04/24 00:34:26;;;;;;;1.00;0.20;;;21.20;43.80;;;;;;5048188;28;20116;-48
2023/04/24 00:36:52;;;;;;;0.15;0.15;;;21.20;43.80;;;;;;5046209;28;20032;-50
2023/04/24 00:39:19;;;;;;;0.32;0.10;;;21.20;43.80;;;;;;5048796;28;20040;-47
2023/04/24 00:41:46;;;;;;;0.57;0.20;;;21.20;44.40;;;;;;5051717;28;20039;-48
2023/04/24 00:44:12;;;;;;;0.38;0.20;;;21.20;43.80;;;;;;5046768;28;20037;-48
2023/04/24 00:46:38;;;;;;;0.38;0.20;;;21.20;43.80;;;;;;5047352;28;20045;-46
2023/04/24 00:49:05;;;;;;;0.20;0.20;;;21.20;43.70;;;;;;5044866;28;20071;-45
2023/04/24 00:51:32;;;;;;;0.22;0.10;;;21.20;43.70;;;;;;5048382;28;20036;-46
2023/04/24 00:53:59;;;;;;;0.10;0.10;;;21.20;43.70;;;;;;5045660;28;20059;-47
2023/04/24 00:56:25;;;;;;;0.10;0.10;;;21.20;43.70;;;;;;5046641;28;20028;-48
2023/04/24 00:58:51;;;;;;;0.50;0.20;;;21.20;43.70;;;;;;5047923;28;20040;-47
2023/04/24 01:01:20;;;;;;;0.63;0.20;;;21.20;43.80;;;;;;5043547;28;20029;-47
2023/04/24 01:03:46;;;;;;;0.20;0.20;;;21.20;43.80;;;;;;5047532;28;20123;-46
2023/04/24 01:06:13;;;;;;;0.55;0.13;;;21.20;43.80;;;;;;5049537;28;20108;-48
2023/04/24 01:08:41;;;;;;;0.20;0.20;;;21.20;43.80;;;;;;5048818;28;20029;-51
2023/04/24 01:11:07;;;;;;;0.68;0.28;;;21.20;43.80;;;;;;5050692;28;20096;-51
2023/04/24 01:13:33;;;;;;;0.45;0.30;;;21.20;43.80;;;;;;5048525;28;20151;-47
2023/04/24 01:16:00;;;;;;;0.17;0.17;;;21.20;43.80;;;;;;5044680;28;20083;-50
2023/04/24 01:18:27;;;;;;;1.33;0.30;;;21.20;43.90;;;;;;5049159;28;20017;-48
2023/04/24 01:20:57;;;;;;;1.55;0.45;;;21.10;43.80;;;;;;5052122;28;20029;-48
2023/04/24 01:23:23;;;;;;;0.68;0.40;;;21.10;43.80;;;;;;5050866;28;20131;-46
2023/04/24 01:25:51;;;;;;;0.40;0.40;;;21.10;43.90;;;;;;5051012;28;20021;-45
2023/04/24 01:28:18;;;;;;;0.45;0.45;;;21.10;43.90;;;;;;5052070;28;20039;-48
2023/04/24 01:30:45;;;;;;;0.70;0.45;;;21.10;43.90;;;;;;5049080;28;20075;-46
2023/04/24 01:33:11;;;;;;;0.50;0.50;;;21.10;43.90;;;;;;5046791;28;20348;-51
2023/04/24 01:35:37;;;;;;;1.48;0.63;;;21.10;43.90;;;;;;5051930;28;20036;-46
2023/04/24 01:38:05;;;;;;;1.20;0.82;;;21.10;43.90;;;;;;5051973;28;20017;-49
2023/04/24 01:40:33;;;;;;;0.85;0.77;;;21.10;43.90;;;;;;5048241;28;20029;-50
2023/04/24 01:42:59;;;;;;;0.90;0.70;;;21.10;43.90;;;;;;5050595;28;20025;-48
2023/04/24 01:45:25;;;;;;;1.35;1.05;;;21.10;44.00;;;;;;5051447;28;20052;-46
2023/04/24 01:47:51;;;;;;;1.73;0.93;;;21.10;44.00;;;;;;5051205;28;20017;-48
2023/04/24 01:50:20;;;;;;;1.58;0.80;;;21.10;44.10;;;;;;5051033;28;20040;-49
2023/04/24 01:52:46;;;;;;;1.48;0.85;;;21.10;44.10;;;;;;5049476;28;20032;-48
2023/04/24 01:55:11;;;;;;;1.50;0.95;;;21.10;44.10;;;;;;5051850;28;20024;-53
2023/04/24 01:57:38;;;;;;;1.23;0.80;;;21.10;44.10;;;;;;5050590;28;20048;-53
2023/04/24 02:00:04;;;;;;;0.90;0.75;;;21.10;44.10;;;;;;5049932;28;21870;-51
2023/04/24 02:02:42;;;;;;;0.80;0.80;;;21.10;44.20;;;;;;5050723;28;20037;-53
2023/04/24 02:05:08;;;;;;;1.13;0.70;;;21.10;44.20;;;;;;5052483;28;20045;-49
2023/04/24 02:07:36;;;;;;;1.17;0.70;;;21.10;44.20;;;;;;5052508;28;20119;-49
2023/04/24 02:10:03;;;;;;;1.00;0.63;;;21.00;44.10;;;;;;5051837;28;20028;-50
2023/04/24 02:12:30;;;;;;;1.00;0.73;;;21.00;44.20;;;;;;5050976;28;20025;-47
2023/04/24 02:14:56;;;;;;;1.40;0.80;;;21.00;44.20;;;;;;5053279;28;20100;-47
2023/04/24 02:17:22;;;;;;;1.83;0.90;;;21.00;44.20;;;;;;5050590;28;20108;-46
2023/04/24 02:19:48;;;;;;;1.00;0.80;;;21.00;44.20;;;;;;5048792;28;20441;-47
2023/04/24 02:22:14;;;;;;;1.10;0.82;;;21.00;44.20;;;;;;5052415;28;20032;-48
2023/04/24 02:24:40;;;;;;;0.80;0.73;;;21.00;44.30;;;;;;5050761;28;20033;-49
2023/04/24 02:27:06;;;;;;;0.95;0.77;;;21.00;44.30;;;;;;5051056;28;20124;-52
2023/04/24 02:29:32;;;;;;;1.02;0.80;;;21.00;44.30;;;;;;5048662;28;20033;-48
2023/04/24 02:31:59;;;;;;;1.90;1.10;;;21.00;44.30;;;;;;5048929;28;20040;-48
2023/04/24 02:34:24;;;;;;;1.25;1.05;;;21.00;44.30;;;;;;5051627;28;20448;-51
2023/04/24 02:36:50;;;;;;;1.33;1.00;;;21.00;44.30;;;;;;5051664;28;20112;-48
2023/04/24 02:39:16;;;;;;;1.88;1.17;;;21.00;44.30;;;;;;5048918;28;20033;-47
2023/04/24 02:41:43;;;;;;;1.45;1.20;;;21.00;44.40;;;;;;5050418;28;20382;-47
2023/04/24 02:44:09;;;;;;;1.67;1.00;;;21.00;44.40;;;;;;5048105;28;20172;-48
2023/04/24 02:46:35;;;;;;;1.67;1.20;;;21.00;44.50;;;;;;5049386;28;20049;-46
2023/04/24 02:49:01;;;;;;;1.65;1.23;;;21.00;44.50;;;;;;5047137;28;20032;-47
2023/04/24 02:51:27;;;;;;;1.65;1.25;;;21.00;44.50;;;;;;5051167;28;20041;-50
2023/04/24 02:53:53;;;;;;;1.52;1.20;;;21.00;44.50;;;;;;5048945;28;20436;-48
2023/04/24 02:56:19;;;;;;;1.98;1.00;;;21.00;44.50;;;;;;5052013;28;20033;-47
2023/04/24 02:58:45;;;;;;;1.20;1.10;;;21.00;44.50;;;;;;5048116;28;20036;-49
2023/04/24 03:01:11;;;;;;;1.33;1.10;;;21.00;44.50;;;;;;5049687;28;20525;-50
2023/04/24 03:03:38;;;;;;;1.40;1.00;;;21.00;44.50;;;;;;5050957;28;20037;-49
2023/04/24 03:06:07;;;;;;;2.17;1.20;;;21.00;44.50;;;;;;5050786;28;20510;-46
2023/04/24 03:08:34;;;;;;;1.48;1.10;;;21.00;44.50;;;;;;5054486;28;20093;-49
2023/04/24 03:11:00;;;;;;;1.13;0.98;;;20.90;44.40;;;;;;5058464;28;20108;-48
2023/04/24 03:13:26;;;;;;;1.65;1.20;;;21.00;44.50;;;;;;5055911;28;20025;-48
2023/04/24 03:15:52;;;;;;;1.40;1.20;;;20.90;44.50;;;;;;5046283;28;20397;-49
2023/04/24 03:18:18;;;;;;;3.08;1.20;;;20.90;44.50;;;;;;5047334;28;20021;-46
2023/04/24 03:20:46;;;;;;;1.20;1.00;;;20.90;44.50;;;;;;5049755;28;20024;-45
2023/04/24 03:23:13;;;;;;;1.83;1.20;;;20.90;44.50;;;;;;5049029;28;20394;-50
2023/04/24 03:25:40;;;;;;;1.23;1.13;;;20.90;44.50;;;;;;5049549;28;20112;-49
2023/04/24 03:28:06;;;;;;;1.50;1.20;;;20.90;44.50;;;;;;5046058;28;20440;-50
2023/04/24 03:30:51;;;;;;;;;;;20.90;44.50;;;;;;5047144;28;20430;-48
2023/04/24 03:33:18;;;;;;;1.20;0.90;;;20.90;44.50;;;;;;5048039;28;19924;-48
2023/04/24 03:35:53;;;;;;;1.58;1.17;;;20.90;44.50;;;;;;5049601;28;20436;-45
2023/04/24 03:38:21;;;;;;;1.40;1.30;;;20.90;44.60;;;;;;5048113;28;20025;-51
2023/04/24 03:40:52;;;;;;;1.30;1.10;;;20.90;44.60;;;;;;5047543;28;20098;-53
2023/04/24 03:43:37;;;;;;;1.75;1.30;;;20.80;44.50;;;;;;5048501;28;20048;-47
2023/04/24 03:46:04;;;;;;;1.70;0.98;;;20.80;44.60;;;;;;5044904;28;20051;-48
2023/04/24 03:48:34;;;;;;;1.33;1.17;;;20.90;44.60;;;;;;5050073;28;20147;-46
2023/04/24 03:51:01;;;;;;;1.30;1.20;;;20.80;44.50;;;;;;5046304;28;20479;-49
2023/04/24 03:53:28;;;;;;;1.63;1.35;;;20.80;44.50;;;;;;5046440;28;20436;-49
2023/04/24 03:55:55;;;;;;;2.22;1.40;;;20.80;44.50;;;;;;5047697;28;20075;-47
2023/04/24 03:58:21;;;;;;;1.80;1.60;;;20.80;44.50;;;;;;5046603;28;20119;-47
2023/04/24 04:00:49;;;;;;;1.95;1.50;;;20.80;44.50;;;;;;5045909;28;20029;-50
2023/04/24 04:03:41;;;;;;;1.73;1.50;;;20.80;44.50;;;;;;5048039;28;20055;-50
2023/04/24 04:06:07;;;;;;;1.83;1.30;;;20.80;44.50;;;;;;5045964;28;20041;-49
2023/04/24 04:08:34;;;;;;;2.67;1.70;;;20.80;44.50;;;;;;5047349;28;20082;-53
2023/04/24 04:11:00;;;;;;;2.20;1.70;;;20.80;44.50;;;;;;5048641;28;20029;-51
2023/04/24 04:13:26;;;;;;;2.58;1.60;;;20.80;44.50;;;;;;5048386;28;20449;-48
2023/04/24 04:15:52;;;;;;;3.00;1.73;;;20.80;44.50;;;;;;5049295;28;20025;-48
2023/04/24 04:18:18;;;;;;;2.70;1.48;;;20.80;44.50;;;;;;5046450;28;20034;-47
2023/04/24 04:20:44;;;;;;;2.10;1.70;;;20.80;44.50;;;;;;5048013;28;20028;-47
2023/04/24 04:23:12;;;;;;;2.28;1.83;;;20.80;44.50;;;;;;5047270;28;20047;-45
2023/04/24 04:25:54;;;;;;;2.28;1.60;;;20.80;44.40;;;;;;5052040;28;20067;-46
2023/04/24 04:28:26;;;;;;;1.80;1.50;;;20.80;44.40;;;;;;5045399;28;20033;-48
2023/04/24 04:30:55;;;;;;;1.92;1.60;;;20.80;44.40;;;;;;5048399;28;20020;-49
2023/04/24 04:33:23;;;;;;;2.38;1.88;;;20.80;44.40;;;;;;5047070;28;20103;-46
2023/04/24 04:35:49;;;;;;;2.05;1.67;;;20.80;44.40;;;;;;5044391;28;20033;-50
2023/04/24 04:38:16;;;;;;;3.15;1.80;;;20.80;44.40;;;;;;5050170;28;20125;-45
2023/04/24 04:40:47;;;;;;;2.08;1.85;;;20.80;44.30;;;;;;5050630;28;20021;-47
2023/04/24 04:43:17;;;;;;;2.50;1.75;;;20.80;44.30;;;;;;5045305;28;20032;-47
2023/04/24 04:45:51;;;;;;;2.10;1.55;;;20.80;44.20;;;;;;5042753;28;20042;-46
2023/04/24 04:48:43;;;;;;;2.60;1.73;;;20.80;44.20;;;;;;5043451;28;20429;-50
2023/04/24 04:51:09;;;;;;;2.55;2.03;;;20.80;44.20;;;;;;5048522;28;20100;-48
2023/04/24 04:53:35;;;;;;;1.90;1.70;;;20.80;44.10;;;;;;5047896;28;20436;-50
2023/04/24 04:56:02;;;;;;;2.67;1.70;;;20.80;44.10;;;;;;5049255;28;20029;-46
2023/04/24 04:58:36;;;;;;;1.92;1.70;;;20.80;44.10;;;;;;5042711;28;20036;-48
2023/04/24 05:01:03;;;;;;;2.20;1.60;;;20.80;44.10;;;;;;5046211;28;20487;-48
2023/04/24 05:03:37;;;;;;;2.33;1.45;;;20.80;44.00;;;;;;5048441;28;20059;-50
2023/04/24 05:06:07;;;;;;;2.08;1.70;;;20.80;44.00;;;;;;5047743;28;20029;-49
2023/04/24 05:08:35;;;;;;;2.20;1.80;;;20.90;44.00;;;;;;5045293;28;20469;-48
2023/04/24 05:11:03;;;;;;;1.77;1.30;;;20.90;44.00;;;;;;5045629;28;20043;-44
2023/04/24 05:13:30;;;;;;;2.83;1.70;;;20.90;44.00;;;;;;5047834;28;20025;-48
2023/04/24 05:15:57;;;;;;;3.10;1.75;;;20.80;43.90;;;;;;5045789;28;20021;-48
2023/04/24 05:18:23;;;;;;;1.38;1.27;;;20.90;43.90;;;;;;5046828;28;20594;-46
2023/04/24 05:20:49;;;;;;;1.92;1.63;;;20.90;43.90;;;;;;5047590;28;20036;-45
2023/04/24 05:23:15;;;;;;;2.60;1.75;;;20.90;43.90;;;;;;5046073;28;20329;-45
2023/04/24 05:25:43;;;;;;;2.03;1.50;;;20.90;43.90;;;;;;5046017;28;20048;-53
2023/04/24 05:28:11;;;;;;;1.48;1.27;;;20.90;43.90;;;;;;5048572;28;20092;-51
2023/04/24 05:30:38;;;;;;;4.00;2.30;;;20.90;43.90;;;;;;5045269;28;20132;-47
2023/04/24 05:33:03;;;;;;;2.45;1.70;;;20.90;43.90;;;;;;5046466;28;20108;-50
2023/04/24 05:35:34;;;;;;;2.83;1.73;;;20.90;43.90;;;;;;5047635;28;20035;-46
2023/04/24 05:38:01;;;;;;;1.83;1.35;;;20.90;43.90;;;;;;5047751;28;20393;-47
2023/04/24 05:40:26;;;;;;;1.52;1.10;;;20.90;43.90;;;;;;5044733;28;20021;-51
2023/04/24 05:42:52;;;;;;;1.50;1.13;;;20.90;43.90;;;;;;5041151;28;20091;-51
2023/04/24 05:45:20;;;;;;;1.70;1.45;;;20.90;43.90;;;;;;5045789;28;20048;-53
2023/04/24 05:47:45;;;;;;;1.98;1.35;;;20.90;43.80;;;;;;5047029;28;20606;-49
2023/04/24 05:50:12;;;;;;;1.67;1.20;;;20.90;43.80;;;;;;5044771;28;20287;-53
2023/04/24 05:52:38;;;;;;;1.50;1.17;;;20.90;43.80;;;;;;5046652;28;20037;-52
2023/04/24 05:55:11;;;;;;;1.23;1.13;;;20.90;43.80;;;;;;5048230;28;20025;-51
2023/04/24 05:57:39;;;;;;;1.77;1.20;;;20.90;43.80;;;;;;5050085;28;20491;-46
2023/04/24 06:00:07;;;;;;;1.52;1.10;;;20.90;43.90;;;;;;5033265;28;20444;-48
2023/04/24 06:02:52;;;;;;;2.25;1.08;;;20.90;43.90;;;;;;5050550;28;20036;-51
2023/04/24 06:05:20;;;;;;;2.05;1.10;;;20.90;43.90;;;;;;5049108;28;21426;-47
2023/04/24 06:07:46;;;;;;;1.40;1.00;;;20.90;43.80;;;;;;5049839;28;20087;-49
2023/04/24 06:10:11;;;;;;;1.77;1.40;;;20.90;43.80;;;;;;5049821;28;20033;-48
2023/04/24 06:12:41;;;;;;;1.73;1.10;;;20.90;43.80;;;;;;5050180;28;20037;-48
2023/04/24 06:15:12;;;;;;;1.58;1.08;;;20.90;43.80;;;;;;5056596;28;20068;-49
2023/04/24 06:17:59;;;;;;;1.40;1.00;;;20.90;43.80;;;;;;5055516;28;20027;-54
2023/04/24 06:20:26;;;;;;;1.42;1.00;;;20.90;43.90;;;;;;5052367;28;20106;-53
2023/04/24 06:22:53;;;;;;;0.85;0.80;;;20.90;43.90;;;;;;5050674;28;20193;-51
2023/04/24 06:25:19;;;;;;;1.35;0.90;;;20.90;43.90;;;;;;5049839;28;20040;-53
2023/04/24 06:27:46;;;;;;;1.63;0.93;;;20.90;43.90;;;;;;5050503;28;20025;-49
2023/04/24 06:30:12;;;;;;;2.00;1.23;;;21.00;43.90;;;;;;5050988;28;20472;-47
2023/04/24 06:32:38;;;;;;;1.80;0.90;;;20.90;44.50;;;;;;5041560;28;20044;-46
2023/04/24 06:35:04;;;;;;;3.22;1.08;;;21.00;43.90;;;;;;5039880;28;20036;-50
2023/04/24 06:37:30;;;;;;;1.48;0.93;;;20.90;43.80;;;;;;5045798;28;20026;-50
2023/04/24 06:39:56;;;;;;;2.33;1.17;;;21.00;43.90;;;;;;5046567;28;20044;-49
2023/04/24 06:42:22;;;;;;;1.77;1.10;;;21.00;43.90;;;;;;5041806;28;20021;-48
2023/04/24 06:44:49;;;;;;;1.42;0.93;;;21.00;43.90;;;;;;5046283;28;20041;-47
2023/04/24 06:47:15;;;;;;;1.63;1.00;;;21.00;43.90;;;;;;5043436;28;20033;-48
2023/04/24 06:49:42;;;;;;;2.55;0.98;;;21.00;43.90;;;;;;5043089;28;20030;-47
2023/04/24 06:52:08;;;;;;;2.40;1.17;;;21.00;43.90;;;;;;5046139;28;20106;-46
2023/04/24 06:54:34;;;;;;;4.50;1.63;;;21.00;44.00;;;;;;5047862;28;20514;-50
2023/04/24 06:57:00;;;;;;;3.03;1.20;;;21.00;44.00;;;;;;5045620;28;20036;-47
2023/04/24 06:59:27;;;;;;;1.73;1.08;;;21.00;44.00;;;;;;5041782;28;20021;-49
2023/04/24 07:01:53;;;;;;;1.80;0.98;;;21.00;44.00;;;;;;5044133;28;20059;-49
2023/04/24 07:04:22;;;;;;;2.67;1.05;;;21.00;44.10;;;;;;5043394;28;20044;-53
2023/04/24 07:06:49;;;;;;;2.05;0.95;;;21.00;44.70;;;;;;5034152;28;20028;-50
2023/04/24 07:09:21;;;;;;;7.13;1.20;;;21.00;44.00;;;;;;5044796;28;20029;-48
2023/04/24 07:11:48;;;;;;;1.55;0.70;;;21.10;44.00;;;;;;5043629;28;20472;-46
2023/04/24 07:14:14;;;;;;;3.50;1.15;;;21.10;44.00;;;;;;5038774;28;20047;-49
2023/04/24 07:16:39;;;;;;;2.00;0.90;;;21.10;43.90;;;;;;5044573;28;20068;-50
2023/04/24 07:19:06;;;;;;;2.35;0.95;;;21.20;44.00;;;;;;5043417;28;20049;-47
2023/04/24 07:21:32;;;;;;;1.60;0.70;;;21.20;43.90;;;;;;5040684;28;20104;-46
2023/04/24 07:23:58;;;;;;;1.38;0.60;;;21.20;43.90;;;;;;5048605;28;20051;-48
2023/04/24 07:26:25;;;;;;;2.08;0.68;;;21.20;43.80;;;;;;5054086;28;20120;-49
2023/04/24 07:28:51;;;;;;;0.77;0.60;;;21.30;43.80;;;;;;5052214;28;20119;-46
2023/04/24 07:31:17;;;;;;;1.30;0.55;;;21.30;43.70;;;;;;5053752;28;20348;-47
2023/04/24 07:33:42;;;;;;;1.45;0.50;;;21.30;43.60;;;;;;5053917;28;20036;-50
2023/04/24 07:36:15;;;;;;;1.30;0.65;;;21.30;43.60;;;;;;5052132;28;20421;-49
2023/04/24 07:38:44;;;;;;;1.05;0.43;;;21.40;43.60;;;;;;5052035;28;20040;-47
2023/04/24 07:41:10;;;;;;;1.98;0.70;;;21.40;43.60;;;;;;5052654;28;20153;-49
2023/04/24 07:43:35;;;;;;;0.88;0.50;;;21.40;44.10;;;;;;5042626;28;20199;-49
2023/04/24 07:46:02;;;;;;;1.33;0.77;;;21.50;43.50;;;;;;5040255;28;20123;-47
2023/04/24 07:48:27;;;;;;;1.52;0.70;;;21.50;43.40;;;;;;5038083;28;20030;-49
2023/04/24 07:50:53;;;;;;;0.57;0.45;;;21.50;43.40;;;;;;5046420;28;20041;-50
2023/04/24 07:53:19;;;;;;;1.33;0.63;;;21.60;43.40;;;;;;5051759;28;20040;-54
2023/04/24 07:55:46;;;;;;;1.77;0.65;;;21.60;43.30;;;;;;5041083;28;20575;-49
2023/04/24 07:58:11;;;;;;;0.98;0.60;;;21.60;43.20;;;;;;5040877;28;20039;-47
2023/04/24 08:00:37;;;;;;;1.20;0.40;;;21.70;43.10;;;;;;5041407;28;20112;-50
2023/04/24 08:03:03;;;;;;;1.08;0.63;;;21.70;43.10;;;;;;5042214;28;20456;-50
2023/04/24 08:05:29;;;;;;;0.98;0.68;;;21.70;43.10;;;;;;5054093;28;20140;-48
2023/04/24 08:07:55;;;;;;;1.90;0.88;;;21.80;43.20;;;;;;5049462;28;20045;-48
2023/04/24 08:10:22;;;;;;;1.63;0.80;;;21.80;43.10;;;;;;5038633;28;20025;-45
2023/04/24 08:12:48;;;;;;;2.55;1.00;;;21.80;43.00;;;;;;5041757;28;20129;-46
2023/04/24 08:15:14;;;;;;;2.28;1.00;;;21.80;42.90;;;;;;5045519;28;20488;-52
2023/04/24 08:17:40;;;;;;;1.48;0.90;;;21.80;42.70;;;;;;5047331;28;20119;-49
2023/04/24 08:20:10;;;;;;;1.73;1.00;;;21.90;43.30;;;;;;5051928;28;20384;-47
2023/04/24 08:22:36;;;;;;;3.47;1.23;;;21.90;42.50;;;;;;5051506;28;20055;-46
2023/04/24 08:25:02;;;;;;;2.03;0.95;;;21.90;42.40;;;;;;5053129;28;20033;-48
2023/04/24 08:27:28;;;;;;;1.48;0.82;;;21.90;42.30;;;;;;5052721;28;20606;-49
2023/04/24 08:29:54;;;;;;;2.65;1.27;;;21.90;42.20;;;;;;5051582;28;20040;-51
2023/04/24 08:32:20;;;;;;;1.50;0.82;;;21.90;42.10;;;;;;5053192;28;20025;-46
2023/04/24 08:34:45;;;;;;;1.50;0.80;;;21.90;42.10;;;;;;5052637;28;20025;-46
2023/04/24 08:37:12;;;;;;;2.45;0.90;;;21.90;42.00;;;;;;5053670;28;20031;-46
2023/04/24 08:39:37;;;;;;;2.63;1.13;;;22.00;42.00;;;;;;5053186;28;20048;-46
2023/04/24 08:42:07;;;;;;;1.45;0.90;;;22.00;41.90;;;;;;5050863;28;20025;-47
2023/04/24 08:44:35;;;;;;;2.13;1.10;;;22.00;41.80;;;;;;5052832;28;20036;-46
2023/04/24 08:47:05;;;;;;;2.33;1.30;;;22.00;41.80;;;;;;5051580;28;20734;-47
2023/04/24 08:49:31;;;;;;;2.38;1.10;;;22.00;41.70;;;;;;5053116;28;20112;-47
2023/04/24 08:51:57;;;;;;;2.78;1.17;;;22.00;41.70;;;;;;5052765;28;20021;-48
2023/04/24 08:54:24;;;;;;;3.28;1.10;;;22.00;41.60;;;;;;5052770;28;20021;-48
2023/04/24 08:56:53;;;;;;;1.52;1.00;;;22.00;41.60;;;;;;5052843;28;20033;-50
2023/04/24 08:59:21;;;;;;;2.83;1.30;;;22.00;41.50;;;;;;5049956;28;20029;-45
2023/04/24 09:01:48;;;;;;;3.60;1.25;;;22.00;41.50;;;;;;5052129;28;20353;-48
2023/04/24 09:04:15;;;;;;;2.10;1.20;;;22.00;41.50;;;;;;5052469;28;20041;-49
2023/04/24 09:06:42;;;;;;;2.40;1.20;;;22.00;41.40;;;;;;5051454;28;20091;-52
2023/04/24 09:09:09;;;;;;;2.40;1.23;;;22.00;41.40;;;;;;5051958;28;20138;-51
2023/04/24 09:11:36;;;;;;;2.97;1.48;;;22.00;41.40;;;;;;5053353;28;20044;-45
2023/04/24 09:14:03;;;;;;;2.85;1.30;;;22.00;41.40;;;;;;5052789;28;20044;-51
2023/04/24 09:16:29;;;;;;;1.77;0.95;;;22.10;41.40;;;;;;5052394;28;20033;-51
2023/04/24 09:18:55;;;;;;;1.88;1.00;;;22.10;41.30;;;;;;5052690;28;20468;-48
2023/04/24 09:21:23;;;;;;;1.85;1.10;;;22.10;41.30;;;;;;5052684;28;20385;-48
2023/04/24 09:23:59;;;;;;;1.60;0.93;;;22.10;41.30;;;;;;5051517;28;20095;-46
2023/04/24 09:26:25;;;;;;;1.58;1.00;;;22.00;41.20;;;;;;5051205;28;20083;-45
2023/04/24 09:28:53;;;;;;;1.95;1.20;;;22.10;41.20;;;;;;5052720;28;20021;-49
2023/04/24 09:31:21;;;;;;;1.75;0.98;;;22.10;41.10;;;;;;5054596;28;20041;-48
2023/04/24 09:34:20;;;;;;;2.10;1.08;;;22.00;41.00;;;;;;5062632;28;20029;-49
2023/04/24 09:36:46;;;;;;;2.33;1.05;;;22.10;41.00;;;;;;5061807;28;20037;-49
2023/04/24 09:39:17;;;;;;;1.85;0.85;;;22.10;41.10;;;;;;5055311;28;20348;-48
2023/04/24 09:41:49;;;;;;;2.90;1.20;;;22.10;41.00;;;;;;5055979;28;20087;-50
2023/04/24 09:44:36;;;;;;;2.03;1.00;;;22.10;40.90;;;;;;5054127;28;20139;-47
2023/04/24 09:47:01;;;;;;;3.25;1.42;;;22.10;40.90;;;;;;5054787;28;20043;-49
2023/04/24 09:49:29;;;;;;;2.42;1.08;;;22.10;40.80;;;;;;5056527;28;20108;-45
2023/04/24 09:52:09;;;;;;;2.25;1.00;;;22.10;40.70;;;;;;5055902;28;20411;-48
2023/04/24 09:54:39;;;;;;;2.63;1.20;;;22.10;40.70;;;;;;5055260;28;20056;-51
2023/04/24 09:57:07;;;;;;;1.83;1.00;;;22.10;40.60;;;;;;5055940;28;20056;-49
2023/04/24 09:59:33;;;;;;;4.38;1.23;;;22.10;40.60;;;;;;5055832;28;20104;-47
2023/04/24 10:01:59;;;;;;;2.83;1.10;;;22.10;40.50;;;;;;5055374;28;20120;-49
2023/04/24 10:04:27;;;;;;;3.50;1.33;;;22.10;40.40;;;;;;5055831;28;20360;-48
2023/04/24 10:06:55;;;;;;;3.15;1.02;;;22.10;40.40;;;;;;5054435;28;20024;-51
2023/04/24 10:09:26;;;;;;;2.20;1.10;;;22.10;40.30;;;;;;5059411;28;20035;-50
2023/04/24 10:11:54;;;;;;;4.18;1.17;;;22.10;40.20;;;;;;5053168;28;20120;-45
2023/04/24 10:14:23;;;;;;;2.65;1.10;;;22.10;40.20;;;;;;5055489;28;20063;-48
2023/04/24 10:16:50;;;;;;;1.95;1.27;;;22.10;40.20;;;;;;5054258;28;20120;-47
2023/04/24 10:19:18;;;;;;;2.97;1.00;;;22.10;40.10;;;;;;5055008;28;20036;-48
2023/04/24 10:21:47;;;;;;;3.00;1.10;;;22.10;40.10;;;;;;5052530;28;20037;-45
2023/04/24 10:24:18;;;;;;;2.13;0.82;;;22.10;40.10;;;;;;5053029;28;20044;-46
2023/04/24 10:26:45;;;;;;;3.20;1.20;;;22.10;40.00;;;;;;5054546;28;20389;-49
2023/04/24 10:29:17;;;;;;;2.13;1.10;;;22.20;40.70;;;;;;5053020;28;20028;-47
2023/04/24 10:31:45;;;;;;;2.03;1.10;;;22.10;40.00;;;;;;5054923;28;20037;-49
2023/04/24 10:34:11;;;;;;;2.75;1.27;;;22.20;40.10;;;;;;5054132;28;20083;-52
2023/04/24 10:36:42;;;;;;;2.80;1.15;;;22.20;40.20;;;;;;5054812;28;20036;-53
2023/04/24 10:39:15;;;;;;;3.17;1.20;;;22.20;40.20;;;;;;5055062;28;20388;-51
2023/04/24 10:41:42;;;;;;;2.75;1.10;;;22.20;40.10;;;;;;5046704;28;20032;-52
2023/04/24 10:44:09;;;;;;;2.25;1.30;;;22.20;40.00;;;;;;5034668;28;20049;-54
2023/04/24 10:46:36;;;;;;;3.25;1.17;;;22.10;39.90;;;;;;5045482;28;20076;-54
2023/04/24 10:49:06;;;;;;;1.88;1.00;;;22.10;39.90;;;;;;5045780;28;20041;-53
2023/04/24 10:51:52;;;;;;;3.45;1.20;;;22.20;39.90;;;;;;5041180;28;20031;-53
2023/04/24 10:54:25;;;;;;;4.28;1.27;;;22.10;39.90;;;;;;5045013;28;20083;-53
2023/04/24 10:56:52;;;;;;;2.80;1.25;;;22.10;39.90;;;;;;5044611;28;20068;-47
2023/04/24 10:59:34;;;;;;;2.22;0.90;;;22.20;39.90;;;;;;5035779;28;20048;-55
2023/04/24 11:02:08;;;;;;;3.25;1.25;;;22.10;39.90;;;;;;5039094;28;20017;-50
2023/04/24 11:04:37;;;;;;;1.80;0.95;;;22.20;39.90;;;;;;5035543;28;20051;-53
2023/04/24 11:07:04;;;;;;;3.83;1.30;;;22.20;39.80;;;;;;5038685;28;20028;-51
2023/04/24 11:09:32;;;;;;;2.72;1.35;;;22.20;39.80;;;;;;5035299;28;20060;-49
2023/04/24 11:12:14;;;;;;;2.80;1.40;;;22.20;39.70;;;;;;5038832;28;20506;-50
2023/04/24 11:15:01;;;;;;;1.90;0.90;;;22.30;39.70;;;;;;5042553;28;20018;-53
2023/04/24 11:17:38;;;;;;;1.55;0.95;;;22.20;39.50;;;;;;5045457;28;20048;-48
2023/04/24 11:20:11;;;;;;;2.28;1.17;;;22.30;39.50;;;;;;5076029;28;20043;-49
2023/04/24 11:22:42;;;;;;;2.10;0.80;;;22.30;39.50;;;;;;5076355;28;20039;-49
2023/04/24 11:25:11;;;;;;;2.63;1.13;;;22.30;39.40;;;;;;5075951;28;20040;-51
2023/04/24 11:27:48;;;;;;;3.40;1.13;;;22.30;39.30;;;;;;5066962;28;20033;-47
2023/04/24 11:30:19;;;;;;;2.60;1.00;;;22.30;39.20;;;;;;5050284;28;20091;-52
2023/04/24 11:32:50;;;;;;;1.70;0.65;;;22.30;39.10;;;;;;5055496;28;20036;-49
2023/04/24 11:35:27;;;;;;;2.35;1.02;;;22.40;39.10;;;;;;5054624;28;20040;-51
2023/04/24 11:37:54;;;;;;;2.08;1.00;;;22.40;39.00;;;;;;5052731;28;20131;-51
2023/04/24 11:40:25;;;;;;;1.83;0.70;;;22.40;38.90;;;;;;5053035;28;20037;-53
2023/04/24 11:42:55;;;;;;;2.72;1.17;;;22.40;38.80;;;;;;5049394;28;20051;-47
2023/04/24 11:45:28;;;;;;;2.10;0.90;;;22.40;38.70;;;;;;5051039;28;20131;-50
2023/04/24 11:47:54;;;;;;;2.67;0.90;;;22.50;38.60;;;;;;5053197;28;20037;-50
2023/04/24 11:50:23;;;;;;;1.00;0.65;;;22.50;38.50;;;;;;5051424;28;20283;-48
2023/04/24 11:52:50;;;;;;;1.10;0.60;;;22.50;38.40;;;;;;5048552;28;20036;-48
2023/04/24 11:55:18;;;;;;;0.57;0.50;;;22.50;38.40;;;;;;5051045;28;20020;-52
2023/04/24 11:57:46;;;;;;;2.25;0.80;;;22.50;38.30;;;;;;5052630;28;20471;-47
2023/04/24 12:00:18;;;;;;;1.65;0.73;;;22.50;38.20;;;;;;5053399;28;20021;-50
2023/04/24 12:02:44;;;;;;;1.35;0.68;;;22.50;38.10;;;;;;5052329;28;20463;-47
2023/04/24 12:05:23;;;;;;;2.08;0.60;;;22.50;38.10;;;;;;5049952;28;20341;-49
2023/04/24 12:07:49;;;;;;;2.05;0.80;;;22.50;38.00;;;;;;5049017;28;20440;-48
2023/04/24 12:10:27;;;;;;;1.20;0.65;;;22.60;38.10;;;;;;5051838;28;20119;-47
2023/04/24 12:12:55;;;;;;;1.73;0.82;;;22.60;38.00;;;;;;5051009;28;20038;-50
2023/04/24 12:15:21;;;;;;;1.60;0.70;;;22.60;38.00;;;;;;5053085;28;20032;-51
2023/04/24 12:17:50;;;;;;;1.42;0.60;;;22.60;38.00;;;;;;5052435;28;20103;-49
2023/04/24 12:20:17;;;;;;;1.52;0.82;;;22.60;38.00;;;;;;5049681;28;20444;-51
2023/04/24 12:22:45;;;;;;;1.70;0.50;;;22.60;38.00;;;;;;5051885;28;20108;-48
2023/04/24 12:25:12;;;;;;;0.70;0.45;;;22.60;38.00;;;;;;5052748;28;20084;-48
2023/04/24 12:27:37;;;;;;;2.65;0.60;;;22.60;38.00;;;;;;5053142;28;20052;-49
2023/04/24 12:30:05;;;;;;;1.02;0.47;;;22.60;38.00;;;;;;5051203;28;20029;-49
2023/04/24 12:32:33;;;;;;;0.95;0.50;;;22.60;38.00;;;;;;5049851;28;20039;-48
2023/04/24 12:35:05;;;;;;;1.17;0.60;;;22.60;37.90;;;;;;5048449;28;20041;-52
2023/04/24 12:37:33;;;;;;;2.10;0.70;;;22.70;38.00;;;;;;5052980;28;20091;-50
2023/04/24 12:40:01;;;;;;;1.17;0.50;;;22.60;37.90;;;;;;5053782;28;20408;-51
2023/04/24 12:42:30;;;;;;;1.27;0.50;;;22.70;38.00;;;;;;5055804;28;20033;-52
2023/04/24 12:45:06;;;;;;;1.17;0.50;;;22.70;37.90;;;;;;5055652;28;20044;-49
2023/04/24 12:47:33;;;;;;;0.93;0.52;;;22.70;37.80;;;;;;5052279;28;20041;-52
2023/04/24 12:50:00;;;;;;;1.52;0.40;;;22.70;37.80;;;;;;5052082;28;20025;-49
2023/04/24 12:52:27;;;;;;;1.45;0.55;;;22.70;37.70;;;;;;5056241;28;20448;-51